createdAt,value
2023-05-22T00:02:42.931Z,100333.72
2023-05-22T00:05:45.884Z,100349.25
2023-05-22T00:08:48.420Z,100345.22
2023-05-22T00:11:51.534Z,100349.72
2023-05-22T00:14:54.095Z,100354.34
2023-05-22T00:17:56.782Z,100328.91
2023-05-22T00:20:59.599Z,100358.59
2023-05-22T00:24:02.701Z,100346.22
2023-05-22T00:27:05.355Z,100344.00
2023-05-22T00:30:08.405Z,100343.47
2023-05-22T00:33:12.608Z,100342.91
2023-05-22T00:36:15.582Z,100363.84
2023-05-22T00:39:18.104Z,100341.63
2023-05-22T00:42:22.653Z,100345.00
2023-05-22T00:45:25.579Z,100347.63
2023-05-22T00:48:28.284Z,100349.00
2023-05-22T00:51:31.057Z,100350.59
2023-05-22T00:54:33.849Z,100342.00
2023-05-22T00:57:38.378Z,100339.69
2023-05-22T01:00:42.755Z,100319.13
2023-05-22T01:03:46.033Z,100337.69
2023-05-22T01:06:49.513Z,100343.50
2023-05-22T01:09:52.728Z,100334.75
2023-05-22T01:13:15.561Z,100344.25
2023-05-22T01:16:29.863Z,100336.59
2023-05-22T01:19:47.686Z,100339.22
2023-05-22T01:23:25.361Z,100349.94
2023-05-22T01:26:54.999Z,100354.91
2023-05-22T01:30:12.898Z,100340.47
2023-05-22T01:33:18.633Z,100334.56
2023-05-22T01:36:24.085Z,100318.72
2023-05-22T01:39:28.688Z,100323.59
2023-05-22T01:42:31.181Z,100328.22
2023-05-22T01:45:34.052Z,100323.94
2023-05-22T01:48:38.032Z,100336.00
2023-05-22T01:51:53.834Z,100344.53
2023-05-22T01:55:03.678Z,100318.56
2023-05-22T01:58:31.828Z,100334.69
2023-05-22T02:01:38.272Z,100337.44
2023-05-22T02:04:44.718Z,100337.69
2023-05-22T02:07:48.406Z,100318.34
2023-05-22T02:10:55.938Z,100329.25
2023-05-22T02:13:58.646Z,100331.53
2023-05-22T02:17:02.237Z,100316.19
2023-05-22T02:20:05.555Z,100316.78
2023-05-22T02:23:15.328Z,100316.78
2023-05-22T02:26:17.854Z,100328.72
2023-05-22T02:29:20.386Z,100324.41
2023-05-22T02:32:22.910Z,100328.97
2023-05-22T02:35:25.500Z,100326.72
2023-05-22T02:38:28.228Z,100319.09
2023-05-22T02:41:31.030Z,100324.91
2023-05-22T02:44:33.486Z,100301.59
2023-05-22T02:47:36.097Z,100316.13
2023-05-22T02:50:38.808Z,100300.00
2023-05-22T02:53:41.820Z,100315.78
2023-05-22T02:56:44.375Z,100309.44
2023-05-22T02:59:46.955Z,100325.34
2023-05-22T03:02:49.931Z,100323.16
2023-05-22T03:05:58.483Z,100324.53
2023-05-22T03:09:01.227Z,100305.53
2023-05-22T03:12:05.103Z,100314.28
2023-05-22T03:15:08.174Z,100313.38
2023-05-22T03:18:11.771Z,100321.09
2023-05-22T03:21:15.172Z,100320.63
2023-05-22T03:24:17.691Z,100313.34
2023-05-22T03:27:20.394Z,100302.06
2023-05-22T03:30:24.559Z,100300.16
2023-05-22T03:33:40.310Z,100306.28
2023-05-22T03:36:43.073Z,100312.22
2023-05-22T03:39:45.984Z,100299.72
2023-05-22T03:43:00.555Z,100305.28
2023-05-22T03:46:03.521Z,100311.09
2023-05-22T03:49:06.380Z,100325.53
2023-05-22T03:52:11.872Z,100311.97
2023-05-22T03:55:14.809Z,100300.50
2023-05-22T03:58:17.297Z,100309.28
2023-05-22T04:01:20.414Z,100301.66
2023-05-22T04:04:22.890Z,100308.34
2023-05-22T04:07:26.743Z,100302.88
2023-05-22T04:10:29.263Z,100316.22
2023-05-22T04:13:31.837Z,100319.78
2023-05-22T04:16:36.288Z,100316.84
2023-05-22T04:19:38.749Z,100290.28
2023-05-22T04:22:41.481Z,100304.19
2023-05-22T04:25:47.920Z,100305.00
2023-05-22T04:28:50.513Z,100307.03
2023-05-22T04:31:54.541Z,100301.28
2023-05-22T04:34:58.470Z,100293.78
2023-05-22T04:38:06.428Z,100292.81
2023-05-22T04:41:08.890Z,100307.19
2023-05-22T04:44:12.228Z,100314.69
2023-05-22T04:47:14.940Z,100293.28
2023-05-22T04:50:17.383Z,100292.97
2023-05-22T04:53:20.045Z,100303.97
2023-05-22T04:56:35.366Z,100289.72
2023-05-22T04:59:40.301Z,100304.31
2023-05-22T05:02:43.219Z,100287.97
2023-05-22T05:05:47.791Z,100274.78
2023-05-22T05:08:50.396Z,100308.38
2023-05-22T05:11:53.469Z,100302.56
2023-05-22T05:14:56.100Z,100308.78
2023-05-22T05:17:58.626Z,100318.94
2023-05-22T05:21:01.139Z,100298.00
2023-05-22T05:24:03.808Z,100309.84
2023-05-22T05:27:06.588Z,100314.09
2023-05-22T05:30:09.689Z,100303.34
2023-05-22T05:33:22.215Z,100304.88
2023-05-22T05:36:47.596Z,100319.75
2023-05-22T05:39:51.807Z,100326.47
2023-05-22T05:42:56.977Z,100352.13
2023-05-22T05:46:02.362Z,100362.16
2023-05-22T05:49:12.623Z,100355.63
2023-05-22T05:52:16.562Z,100335.06
2023-05-22T05:55:19.253Z,100337.97
2023-05-22T05:58:23.071Z,100335.59
2023-05-22T06:01:46.127Z,100337.97
2023-05-22T06:04:56.103Z,100320.53
2023-05-22T06:07:59.035Z,100327.97
2023-05-22T06:11:02.517Z,100357.03
2023-05-22T06:14:12.139Z,100358.13
2023-05-22T06:17:14.913Z,100345.16
2023-05-22T06:20:19.214Z,100320.94
2023-05-22T06:23:21.764Z,100346.00
2023-05-22T06:26:25.881Z,100348.91
2023-05-22T06:29:28.693Z,100337.53
2023-05-22T06:32:32.470Z,100345.97
2023-05-22T06:35:35.073Z,100350.69
2023-05-22T06:38:39.372Z,100335.31
2023-05-22T06:41:49.173Z,100335.50
2023-05-22T06:44:53.004Z,100329.34
2023-05-22T06:47:56.894Z,100354.13
2023-05-22T06:51:00.417Z,100360.25
2023-05-22T06:54:07.119Z,100353.22
2023-05-22T06:57:11.943Z,100344.00
2023-05-22T07:00:15.473Z,100330.56
2023-05-22T07:03:30.636Z,100335.56
2023-05-22T07:06:52.465Z,100341.72
2023-05-22T07:09:55.186Z,100340.56
2023-05-22T07:12:59.691Z,100346.56
2023-05-22T07:16:04.234Z,100356.09
2023-05-22T07:19:09.273Z,100329.34
2023-05-22T07:22:12.128Z,100349.84
2023-05-22T07:25:15.577Z,100353.78
2023-05-22T07:28:18.434Z,100354.03
2023-05-22T07:31:39.032Z,100350.06
2023-05-22T07:34:42.350Z,100346.56
2023-05-22T07:37:45.100Z,100345.56
2023-05-22T07:40:47.713Z,100345.06
2023-05-22T07:43:51.059Z,100333.25
2023-05-22T07:46:58.382Z,100319.66
2023-05-22T07:50:04.674Z,100325.97
2023-05-22T07:53:09.851Z,100326.53
2023-05-22T07:56:14.819Z,100336.34
2023-05-22T07:59:19.727Z,100339.16
2023-05-22T08:02:22.801Z,100336.53
2023-05-22T08:05:25.339Z,100324.09
2023-05-22T08:08:28.883Z,100318.22
2023-05-22T08:11:34.045Z,100341.63
2023-05-22T08:14:36.624Z,100336.06
2023-05-22T08:17:39.918Z,100310.75
2023-05-22T08:20:42.590Z,100309.69
2023-05-22T08:23:46.244Z,100317.34
2023-05-22T08:26:48.690Z,100320.75
2023-05-22T08:29:52.212Z,100317.09
2023-05-22T08:32:54.761Z,100304.97
2023-05-22T08:35:57.210Z,100330.16
2023-05-22T08:39:01.332Z,100321.28
2023-05-22T08:42:05.121Z,100320.41
2023-05-22T08:45:08.137Z,100331.72
2023-05-22T08:48:13.856Z,100294.03
2023-05-22T08:51:21.045Z,100319.16
2023-05-22T08:54:27.633Z,100326.19
2023-05-22T08:57:31.416Z,100324.59
2023-05-22T09:00:34.429Z,100314.53
2023-05-22T09:03:37.735Z,100325.06
2023-05-22T09:06:40.791Z,100321.66
2023-05-22T09:09:43.845Z,100314.31
2023-05-22T09:13:09.444Z,100312.41
2023-05-22T09:16:13.541Z,100323.16
2023-05-22T09:19:16.573Z,100318.56
2023-05-22T09:22:20.146Z,100316.13
2023-05-22T09:25:23.873Z,100313.16
2023-05-22T09:28:27.449Z,100303.25
2023-05-22T09:31:30.526Z,100300.44
2023-05-22T09:34:34.363Z,100301.84
2023-05-22T09:37:37.847Z,100290.00
2023-05-22T09:40:42.236Z,100302.88
2023-05-22T09:43:50.957Z,100293.91
2023-05-22T09:46:54.926Z,100284.81
2023-05-22T09:50:01.365Z,100284.34
2023-05-22T09:53:05.214Z,100298.00
2023-05-22T09:56:14.719Z,100291.13
2023-05-22T09:59:22.517Z,100276.06
2023-05-22T10:02:26.998Z,100284.34
2023-05-22T10:05:34.051Z,100285.66
2023-05-22T10:08:44.461Z,100273.00
2023-05-22T10:11:50.653Z,100285.47
2023-05-22T10:14:55.500Z,100278.41
2023-05-22T10:17:59.980Z,100280.91
2023-05-22T10:21:03.892Z,100280.72
2023-05-22T10:24:08.046Z,100276.16
2023-05-22T10:27:11.334Z,100275.03
2023-05-22T10:30:44.960Z,100277.50
2023-05-22T10:34:13.299Z,100266.19
2023-05-22T10:37:41.333Z,100248.69
2023-05-22T10:40:46.173Z,100255.25
2023-05-22T10:43:51.115Z,100258.41
2023-05-22T10:46:53.986Z,100264.09
2023-05-22T10:50:05.299Z,100249.19
2023-05-22T10:53:32.303Z,100258.25
2023-05-22T10:56:36.345Z,100260.56
2023-05-22T10:59:38.938Z,100248.13
2023-05-22T11:02:46.117Z,100256.50
2023-05-22T11:05:56.792Z,100252.78
2023-05-22T11:08:59.298Z,100238.28
2023-05-22T11:12:28.592Z,100242.47
2023-05-22T11:15:35.127Z,100228.47
2023-05-22T11:18:39.130Z,100236.13
2023-05-22T11:21:47.018Z,100228.59
2023-05-22T11:24:49.701Z,100213.91
2023-05-22T11:27:54.622Z,100206.03
2023-05-22T11:30:57.683Z,100217.94
2023-05-22T11:34:02.130Z,100211.63
2023-05-22T11:37:04.833Z,100211.06
2023-05-22T11:40:08.785Z,100198.13
2023-05-22T11:43:12.033Z,100195.84
2023-05-22T11:46:15.356Z,100195.56
2023-05-22T11:49:18.266Z,100209.72
2023-05-22T11:52:21.193Z,100189.97
2023-05-22T11:55:24.398Z,100195.66
2023-05-22T11:58:30.354Z,100188.09
2023-05-22T12:01:33.913Z,100198.50
2023-05-22T12:04:38.229Z,100198.53
2023-05-22T12:07:41.251Z,100197.75
2023-05-22T12:10:51.052Z,100190.13
2023-05-22T12:14:06.628Z,100180.84
2023-05-22T12:17:12.903Z,100189.28
2023-05-22T12:20:16.575Z,100167.13
2023-05-22T12:23:25.356Z,100171.41
2023-05-22T12:26:27.886Z,100179.34
2023-05-22T12:29:30.335Z,100159.56
2023-05-22T12:32:33.063Z,100168.34
2023-05-22T12:35:38.651Z,100161.34
2023-05-22T12:38:41.196Z,100168.28
2023-05-22T12:41:44.535Z,100162.34
2023-05-22T12:44:47.170Z,100146.00
2023-05-22T12:47:49.657Z,100142.16
2023-05-22T12:50:53.397Z,100140.75
2023-05-22T12:53:56.998Z,100135.97
2023-05-22T12:56:59.712Z,100132.44
2023-05-22T13:00:02.374Z,100124.97
2023-05-22T13:03:06.562Z,100114.66
2023-05-22T13:06:09.330Z,100114.91
2023-05-22T13:09:16.732Z,100111.81
2023-05-22T13:12:19.506Z,100119.88
2023-05-22T13:15:22.180Z,100103.69
2023-05-22T13:18:25.398Z,100118.56
2023-05-22T13:21:28.464Z,100113.59
2023-05-22T13:24:30.955Z,100113.53
2023-05-22T13:27:34.114Z,100117.09
2023-05-22T13:30:36.698Z,100111.78
2023-05-22T13:33:39.677Z,100098.25
2023-05-22T13:36:42.306Z,100109.19
2023-05-22T13:39:44.852Z,100106.66
2023-05-22T13:42:47.542Z,100098.22
2023-05-22T13:45:50.516Z,100093.97
2023-05-22T13:48:53.613Z,100089.97
2023-05-22T13:51:56.320Z,100083.81
2023-05-22T13:55:00.243Z,100084.34
2023-05-22T13:58:02.784Z,100093.88
2023-05-22T14:01:05.445Z,100081.38
2023-05-22T14:04:08.200Z,100080.38
2023-05-22T14:07:10.759Z,100090.81
2023-05-22T14:10:13.340Z,100079.09
2023-05-22T14:13:15.984Z,100075.91
2023-05-22T14:16:18.638Z,100074.44
2023-05-22T14:19:21.434Z,100074.06
2023-05-22T14:22:24.006Z,100072.63
2023-05-22T14:25:26.527Z,100074.41
2023-05-22T14:28:29.200Z,100060.34
2023-05-22T14:31:31.775Z,100062.97
2023-05-22T14:34:34.640Z,100057.09
2023-05-22T14:37:37.183Z,100070.72
2023-05-22T14:40:39.701Z,100051.66
2023-05-22T14:43:42.486Z,100059.56
2023-05-22T14:46:45.538Z,100058.31
2023-05-22T14:49:48.091Z,100057.25
2023-05-22T14:52:50.774Z,100053.34
2023-05-22T14:55:53.871Z,100042.09
2023-05-22T14:58:56.385Z,100046.75
2023-05-22T15:01:59.006Z,100059.69
2023-05-22T15:05:01.617Z,100048.56
2023-05-22T15:08:04.078Z,100047.84
2023-05-22T15:11:06.652Z,100048.63
2023-05-22T15:14:09.128Z,100047.84
2023-05-22T15:17:11.700Z,100051.00
2023-05-22T15:20:14.183Z,100041.38
2023-05-22T15:23:16.907Z,100043.13
2023-05-22T15:26:19.479Z,100039.56
2023-05-22T15:29:22.057Z,100033.88
2023-05-22T15:32:24.550Z,100030.72
2023-05-22T15:35:30.936Z,100024.25
2023-05-22T15:38:33.836Z,100023.38
2023-05-22T15:41:36.411Z,100024.97
2023-05-22T15:44:38.996Z,100019.59
2023-05-22T15:47:42.703Z,100010.09
2023-05-22T15:50:45.314Z,100026.38
2023-05-22T15:53:47.885Z,100027.19
2023-05-22T15:56:50.575Z,100023.88
2023-05-22T15:59:53.000Z,100026.00
2023-05-22T16:02:55.576Z,100021.63
2023-05-22T16:05:58.215Z,100025.22
2023-05-22T16:09:01.115Z,100041.81
2023-05-22T16:12:04.680Z,100000.56
2023-05-22T16:15:07.939Z,100025.03
2023-05-22T16:18:11.660Z,100025.91
2023-05-22T16:21:14.117Z,100032.00
2023-05-22T16:24:16.699Z,100024.31
2023-05-22T16:27:19.383Z,100034.16
2023-05-22T16:30:21.850Z,100033.28
2023-05-22T16:33:24.430Z,100026.25
2023-05-22T16:36:27.326Z,100020.97
2023-05-22T16:39:30.269Z,100013.84
2023-05-22T16:42:32.825Z,100021.56
2023-05-22T16:45:35.613Z,100025.38
2023-05-22T16:48:38.144Z,100016.16
2023-05-22T16:51:40.599Z,100044.94
2023-05-22T16:54:43.029Z,100045.63
2023-05-22T16:57:46.353Z,100069.88
2023-05-22T17:00:50.498Z,100071.84
2023-05-22T17:03:54.758Z,100064.81
2023-05-22T17:06:57.327Z,100072.81
2023-05-22T17:10:01.003Z,100071.69
2023-05-22T17:13:03.499Z,100068.97
2023-05-22T17:16:06.128Z,100066.69
2023-05-22T17:19:09.254Z,100072.91
2023-05-22T17:22:11.905Z,100076.69
2023-05-22T17:25:14.518Z,100067.25
2023-05-22T17:28:17.493Z,100065.19
2023-05-22T17:31:20.045Z,100038.34
2023-05-22T17:34:24.508Z,100052.00
2023-05-22T17:37:27.110Z,100062.03
2023-05-22T17:40:40.424Z,100045.00
2023-05-22T17:43:47.092Z,100051.66
2023-05-22T17:46:49.682Z,100038.88
2023-05-22T17:49:52.222Z,100035.06
2023-05-22T17:52:54.764Z,100044.13
2023-05-22T17:55:57.524Z,100040.94
2023-05-22T17:59:00.023Z,100057.50
2023-05-22T18:02:02.546Z,100052.34
2023-05-22T18:05:06.248Z,100061.84
2023-05-22T18:08:08.794Z,100052.34
2023-05-22T18:11:11.464Z,100060.91
2023-05-22T18:14:13.868Z,100069.47
2023-05-22T18:17:16.453Z,100059.50
2023-05-22T18:20:20.126Z,100072.38
2023-05-22T18:23:22.646Z,100077.78
2023-05-22T18:26:25.103Z,100091.94
2023-05-22T18:29:27.509Z,100083.84
2023-05-22T18:32:30.251Z,100097.78
2023-05-22T18:35:32.874Z,100092.22
2023-05-22T18:38:35.342Z,100092.59
2023-05-22T18:41:37.822Z,100093.44
2023-05-22T18:44:40.894Z,100089.81
2023-05-22T18:47:43.434Z,100073.03
2023-05-22T18:50:45.948Z,100092.84
2023-05-22T18:53:48.549Z,100091.44
2023-05-22T18:56:51.394Z,100101.41
2023-05-22T18:59:53.950Z,100106.44
2023-05-22T19:02:56.485Z,100104.00
2023-05-22T19:05:58.977Z,100101.47
2023-05-22T19:09:01.474Z,100102.53
2023-05-22T19:12:04.121Z,100101.03
2023-05-22T19:15:07.391Z,100102.34
2023-05-22T19:18:10.228Z,100101.31
2023-05-22T19:21:12.922Z,100113.09
2023-05-22T19:24:15.528Z,100112.81
2023-05-22T19:27:18.785Z,100106.72
2023-05-22T19:30:22.235Z,100107.00
2023-05-22T19:33:26.296Z,100133.34
2023-05-22T19:36:28.954Z,100132.59
2023-05-22T19:39:31.449Z,100143.81
2023-05-22T19:42:34.734Z,100127.25
2023-05-22T19:45:37.611Z,100142.78
2023-05-22T19:48:40.101Z,100124.44
2023-05-22T19:51:43.447Z,100139.53
2023-05-22T19:54:46.301Z,100127.25
2023-05-22T19:57:48.821Z,100134.91
2023-05-22T20:00:51.352Z,100135.72
2023-05-22T20:03:56.152Z,100128.38
2023-05-22T20:06:58.921Z,100133.13
2023-05-22T20:10:01.425Z,100142.81
2023-05-22T20:13:05.272Z,100151.66
2023-05-22T20:16:11.914Z,100148.56
2023-05-22T20:19:14.893Z,100144.38
2023-05-22T20:22:17.481Z,100128.31
2023-05-22T20:25:21.360Z,100136.53
2023-05-22T20:28:23.991Z,100139.69
2023-05-22T20:31:26.570Z,100138.63
2023-05-22T20:34:29.146Z,100143.69
2023-05-22T20:37:34.834Z,100125.75
2023-05-22T20:40:37.832Z,100119.13
2023-05-22T20:43:44.248Z,100143.38
2023-05-22T20:46:46.782Z,100140.25
2023-05-22T20:49:49.263Z,100132.88
2023-05-22T20:52:51.775Z,100142.34
2023-05-22T20:55:54.317Z,100131.50
2023-05-22T20:58:56.958Z,100144.69
2023-05-22T21:01:59.481Z,100128.59
2023-05-22T21:05:01.955Z,100123.59
2023-05-22T21:08:04.406Z,100133.88
2023-05-22T21:11:07.538Z,100121.72
2023-05-22T21:14:10.122Z,100136.53
2023-05-22T21:17:12.810Z,100137.03
2023-05-22T21:20:15.670Z,100120.16
2023-05-22T21:23:18.153Z,100135.44
2023-05-22T21:26:23.055Z,100125.94
2023-05-22T21:29:26.274Z,100126.19
2023-05-22T21:32:28.852Z,100114.81
2023-05-22T21:35:31.415Z,100126.97
2023-05-22T21:38:33.913Z,100139.31
2023-05-22T21:41:36.573Z,100143.03
2023-05-22T21:44:39.209Z,100131.13
2023-05-22T21:47:41.735Z,100145.38
2023-05-22T21:50:44.326Z,100140.06
2023-05-22T21:53:47.475Z,100139.13
2023-05-22T21:56:49.905Z,100132.03
2023-05-22T21:59:52.391Z,100120.41
2023-05-22T22:02:57.284Z,100126.44
2023-05-22T22:05:59.874Z,100122.72
2023-05-22T22:09:03.651Z,100123.47
2023-05-22T22:12:08.202Z,100126.41
2023-05-22T22:15:12.468Z,100147.47
2023-05-22T22:18:15.917Z,100130.81
2023-05-22T22:21:18.474Z,100127.34
2023-05-22T22:24:21.647Z,100101.78
2023-05-22T22:27:24.740Z,100132.88
2023-05-22T22:30:27.315Z,100133.13
2023-05-22T22:33:30.498Z,100115.44
2023-05-22T22:36:33.462Z,100117.44
2023-05-22T22:39:35.837Z,100113.47
2023-05-22T22:42:38.216Z,100130.84
2023-05-22T22:45:41.014Z,100114.16
2023-05-22T22:48:43.783Z,100131.66
2023-05-22T22:51:46.198Z,100116.59
2023-05-22T22:54:49.097Z,100136.66
2023-05-22T22:57:52.000Z,100126.34
2023-05-22T23:00:54.570Z,100121.59
2023-05-22T23:03:57.074Z,100130.06
2023-05-22T23:06:59.659Z,100121.84
2023-05-22T23:10:02.139Z,100112.16
2023-05-22T23:13:04.841Z,100119.16
2023-05-22T23:16:07.394Z,100100.69
2023-05-22T23:19:11.028Z,100113.34
2023-05-22T23:22:13.608Z,100118.81
2023-05-22T23:25:16.252Z,100120.66
2023-05-22T23:28:18.957Z,100132.75
2023-05-22T23:31:25.936Z,100118.47
2023-05-22T23:34:28.571Z,100120.63
2023-05-22T23:37:31.077Z,100109.09
2023-05-22T23:40:33.550Z,100128.31
2023-05-22T23:43:36.146Z,100115.63
2023-05-22T23:46:39.801Z,100118.00
2023-05-22T23:49:42.654Z,100128.50
2023-05-22T23:52:47.339Z,100134.00
2023-05-22T23:55:50.338Z,100121.47
2023-05-22T23:58:52.790Z,100128.84
